Time;durP1;ratioP1;P1;durP2;ratioP2;P2;SDS_P1;SDS_P2;PMS_P1;PMS_P2;Temp;Humidity;BMP_temperature;BMP_pressure;BME280_temperature;BME280_humidity;BME280_pressure;Samples;Min_cycle;Max_cycle;Signal;HPM_P1;HPM_P2
2023/03/21 00:00:30;;;;;;;28.35;19.17;;;358.70;2329.60;;;;;;5075920;28;20094;-75
2023/03/21 00:02:56;;;;;;;28.02;17.33;;;358.70;2329.60;;;;;;5075641;28;20028;-76
2023/03/21 00:05:21;;;;;;;27.25;18.83;;;358.70;2329.60;;;;;;5076106;28;20024;-76
2023/03/21 00:07:47;;;;;;;35.30;21.05;;;358.70;2329.60;;;;;;5051870;28;20024;-76
2023/03/21 00:10:13;;;;;;;26.90;18.45;;;358.70;2329.60;;;;;;5055243;28;20059;-75
2023/03/21 00:12:39;;;;;;;35.75;21.17;;;358.70;2329.60;;;;;;5054477;28;20051;-75
2023/03/21 00:15:06;;;;;;;32.75;20.80;;;358.70;2329.60;;;;;;5044777;28;20432;-76
2023/03/21 00:17:32;;;;;;;26.13;18.42;;;358.60;2329.60;;;;;;5057163;28;20048;-75
2023/03/21 00:20:05;;;;;;;34.30;20.15;;;358.60;2329.60;;;;;;5075315;28;20070;-76
2023/03/21 00:22:33;;;;;;;31.60;20.27;;;358.60;2329.60;;;;;;5042574;28;20033;-76
2023/03/21 00:24:59;;;;;;;30.85;19.50;;;358.50;2329.60;;;;;;5075146;28;20017;-76
2023/03/21 00:27:26;;;;;;;31.95;19.30;;;358.60;2329.60;;;;;;5075363;28;20402;-76
2023/03/21 00:29:52;;;;;;;26.08;17.85;;;358.50;2329.60;;;;;;5075779;28;20020;-76
2023/03/21 00:32:20;;;;;;;34.10;19.42;;;358.50;2329.60;;;;;;5075238;28;20035;-76
2023/03/21 00:34:46;;;;;;;28.88;17.90;;;358.50;2329.60;;;;;;5075097;28;20017;-76
2023/03/21 00:37:15;;;;;;;27.38;19.70;;;358.50;2329.60;;;;;;5050524;28;20044;-76
2023/03/21 00:39:43;;;;;;;28.40;18.00;;;358.50;2329.60;;;;;;5072345;28;20029;-76
2023/03/21 00:42:10;;;;;;;31.80;18.88;;;358.40;2329.60;;;;;;5057810;28;20132;-76
2023/03/21 00:44:36;;;;;;;29.60;19.65;;;358.40;2329.60;;;;;;5057565;28;20066;-76
2023/03/21 00:47:04;;;;;;;32.08;19.60;;;358.40;2329.60;;;;;;5075159;28;20029;-76
2023/03/21 00:49:32;;;;;;;28.13;18.98;;;333.70;2329.60;;;;;;5075625;28;20127;-76
2023/03/21 00:52:03;;;;;;;31.50;19.15;;;333.70;2329.60;;;;;;5075496;28;20033;-76
2023/03/21 00:54:29;;;;;;;31.77;19.85;;;333.70;2329.60;;;;;;5057459;28;20035;-76
2023/03/21 00:56:55;;;;;;;30.60;18.42;;;333.70;2329.60;;;;;;5056966;28;20112;-76
2023/03/21 00:59:21;;;;;;;31.02;19.20;;;333.70;2329.60;;;;;;5057595;28;20486;-76
2023/03/21 01:01:46;;;;;;;29.92;18.33;;;333.70;2329.60;;;;;;5057168;28;20126;-76
2023/03/21 01:04:15;;;;;;;29.77;19.38;;;333.70;2329.60;;;;;;5075272;28;20036;-76
2023/03/21 01:06:42;;;;;;;29.60;18.90;;;333.70;2329.60;;;;;;5075382;28;20029;-76
2023/03/21 01:09:16;;;;;;;25.60;18.70;;;333.60;2329.60;;;;;;5057315;28;20421;-76
2023/03/21 01:11:42;;;;;;;26.63;18.40;;;333.70;2329.60;;;;;;5075224;28;20066;-76
2023/03/21 01:14:08;;;;;;;26.48;19.23;;;333.70;2329.60;;;;;;5057222;28;20036;-76
2023/03/21 01:16:34;;;;;;;32.63;20.30;;;333.70;2329.60;;;;;;5075139;28;20131;-76
2023/03/21 01:19:00;;;;;;;33.40;19.27;;;333.70;2329.60;;;;;;5074830;28;20117;-76
2023/03/21 01:21:26;;;;;;;33.25;21.30;;;333.60;2329.60;;;;;;5075024;28;20024;-76
2023/03/21 01:23:51;;;;;;;29.52;19.40;;;333.70;2329.60;;;;;;5056681;28;20116;-76
2023/03/21 01:26:17;;;;;;;31.13;20.17;;;333.70;2329.60;;;;;;5056980;28;20052;-75
2023/03/21 01:28:44;;;;;;;25.95;17.77;;;333.70;2329.60;;;;;;5056591;28;20068;-75
2023/03/21 01:31:12;;;;;;;28.45;18.85;;;333.70;2329.60;;;;;;5075007;28;20090;-76
2023/03/21 01:33:39;;;;;;;27.17;19.45;;;333.70;2329.60;;;;;;5074499;28;20064;-77
2023/03/21 01:36:06;;;;;;;26.92;19.90;;;333.70;2329.60;;;;;;5074718;28;20548;-77
2023/03/21 01:38:31;;;;;;;27.20;18.27;;;333.70;2329.60;;;;;;5074526;28;20394;-76
2023/03/21 01:41:03;;;;;;;29.85;18.60;;;333.70;2329.60;;;;;;5074756;28;20025;-76
2023/03/21 01:43:34;;;;;;;28.92;19.52;;;333.60;2329.60;;;;;;5074624;28;20021;-76
2023/03/21 01:46:03;;;;;;;25.15;17.67;;;333.60;2329.60;;;;;;5056679;28;20047;-76
2023/03/21 01:48:29;;;;;;;26.00;18.42;;;333.60;2329.60;;;;;;5056513;28;20074;-76
2023/03/21 01:50:56;;;;;;;32.38;18.17;;;333.70;2329.60;;;;;;5056495;28;20029;-77
2023/03/21 01:53:29;;;;;;;30.35;18.63;;;333.70;2329.60;;;;;;5073754;28;20037;-77
2023/03/21 01:56:07;;;;;;;27.52;19.27;;;333.70;2329.60;;;;;;5074390;28;20017;-77
2023/03/21 01:58:34;;;;;;;29.10;18.80;;;333.60;2329.60;;;;;;5055181;28;20029;-76
2023/03/21 02:01:01;;;;;;;29.15;19.67;;;333.60;2329.60;;;;;;5074287;28;20394;-77
2023/03/21 02:03:36;;;;;;;30.42;19.70;;;333.60;2329.60;;;;;;5055470;28;20088;-76
2023/03/21 02:06:08;;;;;;;30.20;19.48;;;333.70;2329.60;;;;;;5074293;28;20017;-76
2023/03/21 02:08:34;;;;;;;33.45;19.80;;;333.60;2329.60;;;;;;5074126;28;20025;-77
2023/03/21 02:11:00;;;;;;;25.65;17.95;;;333.60;2329.60;;;;;;5055956;28;20016;-77
2023/03/21 02:13:26;;;;;;;30.02;18.60;;;333.60;2329.60;;;;;;5056069;28;20147;-78
2023/03/21 02:16:15;;;;;;;30.10;18.80;;;333.60;2329.60;;;;;;5055836;28;20039;-76
2023/03/21 02:18:59;;;;;;;29.90;17.95;;;333.60;2329.60;;;;;;5052503;28;20080;-76
2023/03/21 02:21:28;;;;;;;28.85;19.30;;;333.50;2329.60;;;;;;5053836;28;20020;-76
2023/03/21 02:24:26;;;;;;;26.10;19.33;;;333.40;2329.60;;;;;;5053843;28;20115;-76
2023/03/21 02:27:13;;;;;;;31.30;19.85;;;333.40;2329.60;;;;;;5052373;28;20533;-76
2023/03/21 02:29:44;;;;;;;;;;;333.30;2329.60;;;;;;5054144;28;20056;-77
2023/03/21 02:32:25;;;;;;;25.60;18.05;;;333.30;2329.60;;;;;;5052401;28;19916;-76
2023/03/21 02:35:06;;;;;;;32.60;20.63;;;333.20;2329.60;;;;;;5053502;28;20029;-76
2023/03/21 02:37:47;;;;;;;28.95;18.55;;;333.20;2329.60;;;;;;5053599;28;20521;-75
2023/03/21 02:40:22;;;;;;;32.55;19.20;;;333.20;2329.60;;;;;;5053584;28;20029;-77
2023/03/21 02:43:12;;;;;;;28.50;19.02;;;333.20;2329.60;;;;;;5052446;28;20103;-76
2023/03/21 02:45:55;;;;;;;28.80;20.25;;;333.10;2329.60;;;;;;4971909;28;20489;-77
2023/03/21 02:48:45;;;;;;;27.92;18.80;;;333.10;2329.60;;;;;;4972936;28;20042;-77
2023/03/21 02:51:14;;;;;;;25.05;18.58;;;333.00;2329.60;;;;;;4956368;28;20436;-76
2023/03/21 02:53:44;;;;;;;31.90;19.45;;;333.10;2329.60;;;;;;4972623;28;20170;-76
2023/03/21 02:56:11;;;;;;;29.92;19.27;;;333.10;2329.60;;;;;;4956362;28;20031;-76
2023/03/21 02:58:38;;;;;;;29.95;19.58;;;333.10;2329.60;;;;;;4956297;28;20054;-76
2023/03/21 03:01:07;;;;;;;30.58;19.42;;;333.10;2329.60;;;;;;4956475;28;20030;-77
2023/03/21 03:03:35;;;;;;;25.95;17.98;;;333.00;2329.60;;;;;;4956241;28;20039;-76
2023/03/21 03:06:06;;;;;;;29.63;21.27;;;333.00;2329.60;;;;;;4972557;28;20038;-76
2023/03/21 03:08:48;;;;;;;26.42;19.63;;;333.00;2329.60;;;;;;4972421;28;20532;-76
2023/03/21 03:11:27;;;;;;;25.75;19.15;;;333.00;2329.60;;;;;;4972247;28;20039;-76
2023/03/21 03:14:05;;;;;;;31.75;20.90;;;333.00;2329.60;;;;;;4972395;28;20098;-76
2023/03/21 03:16:57;;;;;;;33.30;18.77;;;333.10;2329.60;;;;;;4956398;28;20432;-77
2023/03/21 03:19:27;;;;;;;27.85;19.02;;;333.00;2329.60;;;;;;4956147;28;20444;-77
2023/03/21 03:22:01;;;;;;;26.83;19.92;;;333.00;2329.60;;;;;;4966736;28;20037;-77
2023/03/21 03:24:35;;;;;;;27.90;21.65;;;333.10;2329.60;;;;;;5031193;28;20017;-76
2023/03/21 03:27:09;;;;;;;27.67;19.80;;;333.20;2329.60;;;;;;5053000;28;20025;-76
2023/03/21 03:29:40;;;;;;;28.45;19.45;;;333.20;2329.60;;;;;;5035187;28;20505;-76
2023/03/21 03:32:39;;;;;;;29.63;20.23;;;333.10;2329.60;;;;;;5052993;28;20071;-77
2023/03/21 03:35:05;;;;;;;28.40;20.08;;;333.10;2329.60;;;;;;4966839;28;20035;-76
2023/03/21 03:37:33;;;;;;;30.92;20.42;;;333.10;2329.60;;;;;;4956051;28;20023;-76
2023/03/21 03:40:16;;;;;;;28.58;19.35;;;333.00;2329.60;;;;;;4956013;28;20133;-77
2023/03/21 03:42:50;;;;;;;33.20;21.60;;;333.00;2329.60;;;;;;4972277;28;20027;-76
2023/03/21 03:45:16;;;;;;;29.60;20.15;;;333.00;2329.60;;;;;;4955989;28;20053;-77
2023/03/21 03:47:49;;;;;;;30.85;20.15;;;332.90;2329.60;;;;;;4955916;28;20101;-76
2023/03/21 03:50:32;;;;;;;27.88;20.60;;;332.90;2329.60;;;;;;4955803;28;20058;-76
2023/03/21 03:53:16;;;;;;;28.95;18.85;;;332.80;2329.60;;;;;;4955802;28;20066;-76
2023/03/21 03:55:43;;;;;;;29.75;19.50;;;308.10;2304.00;;;;;;4972136;28;20027;-76
2023/03/21 03:58:09;;;;;;;28.85;19.67;;;308.10;2304.00;;;;;;4955682;28;20481;-76
2023/03/21 04:00:36;;;;;;;27.95;20.02;;;308.00;2304.00;;;;;;4955771;28;20059;-76
2023/03/21 04:03:02;;;;;;;35.33;20.27;;;307.60;2304.00;;;;;;4955867;28;20034;-76
2023/03/21 04:05:28;;;;;;;30.17;20.48;;;308.00;2304.00;;;;;;4954830;28;20039;-77
2023/03/21 04:07:54;;;;;;;31.35;21.17;;;308.00;2304.00;;;;;;4971942;28;20873;-76
2023/03/21 04:10:21;;;;;;;28.10;19.55;;;307.90;2304.00;;;;;;4975888;28;20520;-77
2023/03/21 04:12:47;;;;;;;33.80;21.05;;;307.90;2304.00;;;;;;5052364;28;20029;-76
2023/03/21 04:15:13;;;;;;;35.72;22.17;;;308.00;2304.00;;;;;;5050977;28;20052;-76
2023/03/21 04:17:38;;;;;;;27.98;20.90;;;308.00;2304.00;;;;;;5052255;28;20060;-76
2023/03/21 04:20:06;;;;;;;32.33;20.80;;;308.10;2304.00;;;;;;5052095;28;20021;-76
2023/03/21 04:22:32;;;;;;;35.22;21.35;;;308.10;2304.00;;;;;;5054300;28;20029;-76
2023/03/21 04:25:00;;;;;;;32.90;19.80;;;308.10;2304.00;;;;;;5054675;28;20027;-76
2023/03/21 04:27:26;;;;;;;28.90;19.50;;;332.80;2329.60;;;;;;5054520;28;20029;-77
2023/03/21 04:29:52;;;;;;;32.55;20.35;;;332.80;2329.60;;;;;;5054685;28;20030;-77
2023/03/21 04:32:18;;;;;;;26.85;18.98;;;332.90;2329.60;;;;;;5054573;28;20047;-76
2023/03/21 04:34:48;;;;;;;31.35;21.27;;;332.90;2329.60;;;;;;5054603;28;20461;-77
2023/03/21 04:37:16;;;;;;;29.05;21.42;;;332.90;2329.60;;;;;;5054451;28;20117;-76
2023/03/21 04:39:42;;;;;;;27.27;19.40;;;332.90;2329.60;;;;;;5053875;28;20029;-76
2023/03/21 04:42:08;;;;;;;29.20;19.13;;;332.90;2329.60;;;;;;5049752;28;20028;-76
2023/03/21 04:44:33;;;;;;;28.58;19.92;;;332.90;2329.60;;;;;;5054543;28;20025;-77
2023/03/21 04:46:59;;;;;;;30.08;20.15;;;332.90;2329.60;;;;;;5054216;28;20033;-77
2023/03/21 04:49:25;;;;;;;27.83;19.50;;;332.90;2329.60;;;;;;5054234;28;20029;-76
2023/03/21 04:51:51;;;;;;;25.73;18.63;;;333.00;2329.60;;;;;;5053978;28;20025;-76
2023/03/21 04:54:17;;;;;;;27.77;18.70;;;333.00;2329.60;;;;;;5054104;28;20025;-76
2023/03/21 04:56:43;;;;;;;28.42;20.08;;;333.00;2329.60;;;;;;5055354;28;20390;-77
2023/03/21 04:59:12;;;;;;;26.60;19.40;;;333.00;2329.60;;;;;;5054130;28;20450;-76
2023/03/21 05:01:40;;;;;;;28.95;18.98;;;333.00;2329.60;;;;;;5054043;28;20108;-76
2023/03/21 05:04:06;;;;;;;31.13;19.15;;;333.00;2329.60;;;;;;5055415;28;20025;-76
2023/03/21 05:06:32;;;;;;;28.52;19.02;;;332.90;2329.60;;;;;;5053225;28;20044;-75
2023/03/21 05:08:59;;;;;;;29.63;19.35;;;333.00;2329.60;;;;;;5055120;28;20021;-76
2023/03/21 05:11:26;;;;;;;29.15;19.60;;;332.90;2329.60;;;;;;5055168;28;20032;-76
2023/03/21 05:13:52;;;;;;;27.60;18.90;;;332.90;2329.60;;;;;;5054868;28;20064;-76
2023/03/21 05:16:18;;;;;;;28.67;19.42;;;332.90;2329.60;;;;;;5055225;28;20475;-76
2023/03/21 05:18:43;;;;;;;26.70;17.98;;;333.00;2329.60;;;;;;5054876;28;20048;-77
2023/03/21 05:21:09;;;;;;;26.67;18.33;;;332.90;2329.60;;;;;;5053465;28;20028;-76
2023/03/21 05:23:38;;;;;;;29.08;18.58;;;332.90;2329.60;;;;;;5053128;28;20029;-76
2023/03/21 05:26:06;;;;;;;26.65;19.50;;;333.00;2329.60;;;;;;5054760;28;20025;-76
2023/03/21 05:28:35;;;;;;;28.17;18.98;;;333.00;2329.60;;;;;;5053477;28;20048;-76
2023/03/21 05:31:02;;;;;;;28.00;19.17;;;333.00;2329.60;;;;;;5052657;28;20041;-76
2023/03/21 05:33:28;;;;;;;31.65;21.25;;;332.90;2329.60;;;;;;5052293;28;20139;-77
2023/03/21 05:35:54;;;;;;;29.85;19.98;;;333.00;2329.60;;;;;;5054436;28;20021;-76
2023/03/21 05:38:20;;;;;;;28.02;19.42;;;333.10;2329.60;;;;;;5052945;28;20040;-76
2023/03/21 05:40:47;;;;;;;26.55;20.15;;;333.10;2329.60;;;;;;5053292;28;20371;-76
2023/03/21 05:43:13;;;;;;;26.63;19.00;;;333.10;2329.60;;;;;;5053314;28;20116;-76
2023/03/21 05:45:39;;;;;;;27.23;20.70;;;333.10;2329.60;;;;;;5054578;28;20100;-76
2023/03/21 05:48:05;;;;;;;29.55;20.00;;;333.10;2329.60;;;;;;5054464;28;20029;-76
2023/03/21 05:50:31;;;;;;;41.78;24.65;;;333.10;2329.60;;;;;;5054263;28;20025;-76
2023/03/21 05:52:56;;;;;;;42.05;25.42;;;333.10;2329.60;;;;;;5052727;28;20102;-76
2023/03/21 05:55:22;;;;;;;60.60;32.97;;;333.10;2329.60;;;;;;5053155;28;20028;-77
2023/03/21 05:57:48;;;;;;;73.85;39.25;;;333.10;2329.60;;;;;;5052688;28;20463;-76
2023/03/21 06:00:14;;;;;;;62.75;33.85;;;333.10;2329.60;;;;;;5054213;28;20123;-76
2023/03/21 06:02:40;;;;;;;51.13;28.75;;;333.20;2329.60;;;;;;5052822;28;20063;-76
2023/03/21 06:05:07;;;;;;;62.15;32.75;;;333.10;2329.60;;;;;;5050506;28;20025;-76
2023/03/21 06:07:34;;;;;;;60.88;32.42;;;333.10;2329.60;;;;;;5053267;28;20485;-76
2023/03/21 06:10:00;;;;;;;47.47;27.05;;;333.10;2329.60;;;;;;5053419;28;20045;-76
2023/03/21 06:12:25;;;;;;;38.88;22.13;;;333.20;2329.60;;;;;;5050566;28;20063;-76
2023/03/21 06:14:51;;;;;;;29.02;19.40;;;333.20;2329.60;;;;;;5052254;28;20537;-76
2023/03/21 06:17:17;;;;;;;30.75;19.65;;;333.30;2329.60;;;;;;5052874;28;20059;-76
2023/03/21 06:19:42;;;;;;;25.25;19.17;;;333.30;2329.60;;;;;;5053330;28;20024;-76
2023/03/21 06:22:08;;;;;;;27.70;18.90;;;333.20;2329.60;;;;;;5045769;28;20058;-76
2023/03/21 06:24:34;;;;;;;29.13;20.05;;;333.20;2329.60;;;;;;5041844;28;20032;-76
2023/03/21 06:26:59;;;;;;;29.23;21.08;;;333.20;2329.60;;;;;;5051513;28;20120;-76
2023/03/21 06:29:25;;;;;;;26.35;18.70;;;333.30;2329.60;;;;;;5053153;28;20032;-76
2023/03/21 06:31:51;;;;;;;39.75;21.20;;;333.20;2329.60;;;;;;5053219;28;20036;-76
2023/03/21 06:34:17;;;;;;;27.35;18.17;;;333.20;2329.60;;;;;;5060095;28;20032;-76
2023/03/21 06:36:43;;;;;;;30.10;19.10;;;333.20;2329.60;;;;;;5051423;28;20466;-76
2023/03/21 06:39:09;;;;;;;25.33;17.05;;;333.30;2329.60;;;;;;5052872;28;20536;-76
2023/03/21 06:41:35;;;;;;;23.45;17.15;;;333.30;2329.60;;;;;;5052903;28;20029;-76
2023/03/21 06:44:01;;;;;;;28.88;18.75;;;333.40;2329.60;;;;;;5050206;28;20352;-76
2023/03/21 06:46:27;;;;;;;33.10;19.50;;;333.40;2329.60;;;;;;5048028;28;20025;-76
2023/03/21 06:48:53;;;;;;;27.60;17.85;;;333.40;2329.60;;;;;;5049052;28;20036;-76
2023/03/21 06:51:18;;;;;;;27.40;18.63;;;333.40;2329.60;;;;;;5046821;28;20071;-75
2023/03/21 06:53:44;;;;;;;26.85;17.88;;;333.50;2329.60;;;;;;5052433;28;20075;-75
2023/03/21 06:56:12;;;;;;;27.67;18.13;;;333.50;2329.60;;;;;;5051222;28;20544;-75
2023/03/21 06:58:38;;;;;;;23.80;17.63;;;333.50;2329.60;;;;;;5053102;28;20029;-74
2023/03/21 07:01:04;;;;;;;22.83;17.05;;;333.60;2329.60;;;;;;5052704;28;20040;-75
2023/03/21 07:03:31;;;;;;;28.77;17.58;;;333.60;2329.60;;;;;;5052680;28;20540;-77
2023/03/21 07:05:57;;;;;;;28.75;19.17;;;333.60;2329.60;;;;;;5052419;28;20021;-76
2023/03/21 07:08:23;;;;;;;24.83;17.55;;;333.70;2329.60;;;;;;5050262;28;20029;-76
2023/03/21 07:10:49;;;;;;;27.80;18.92;;;358.40;2329.60;;;;;;5052565;28;20029;-76
2023/03/21 07:13:15;;;;;;;28.63;18.83;;;358.40;2329.60;;;;;;5050754;28;20072;-75
2023/03/21 07:15:41;;;;;;;22.75;17.17;;;358.50;2329.60;;;;;;5052505;28;20380;-75
2023/03/21 07:18:08;;;;;;;34.75;17.85;;;358.60;2329.60;;;;;;5051996;28;20052;-76
2023/03/21 07:20:36;;;;;;;26.30;17.20;;;358.60;2329.60;;;;;;5050939;28;20025;-76
2023/03/21 07:23:03;;;;;;;24.77;16.92;;;358.70;2329.60;;;;;;5052332;28;20032;-75
2023/03/21 07:25:29;;;;;;;23.70;17.73;;;358.80;2329.60;;;;;;5045535;28;20013;-75
2023/03/21 07:27:55;;;;;;;27.17;18.27;;;358.80;2329.60;;;;;;5052111;28;20033;-76
2023/03/21 07:30:21;;;;;;;29.60;20.35;;;358.90;2329.60;;;;;;5050322;28;20046;-76
2023/03/21 07:32:47;;;;;;;24.52;18.05;;;358.90;2329.60;;;;;;5045081;28;20067;-76
2023/03/21 07:35:15;;;;;;;27.83;17.55;;;358.90;2329.60;;;;;;5048329;28;20029;-76
2023/03/21 07:37:41;;;;;;;31.65;19.30;;;358.90;2329.60;;;;;;5046744;28;20029;-76
2023/03/21 07:40:09;;;;;;;25.98;18.48;;;359.00;2329.60;;;;;;5048779;28;20463;-78
2023/03/21 07:42:39;;;;;;;27.80;18.20;;;359.00;2329.60;;;;;;5050843;28;20029;-78
2023/03/21 07:45:06;;;;;;;30.48;18.73;;;359.20;2329.60;;;;;;5050914;28;20387;-77
2023/03/21 07:47:33;;;;;;;24.67;17.85;;;359.20;2329.60;;;;;;5050204;28;20523;-76
2023/03/21 07:49:59;;;;;;;33.45;19.23;;;359.20;2329.60;;;;;;5037836;28;20021;-77
2023/03/21 07:52:25;;;;;;;30.58;16.80;;;359.20;2329.60;;;;;;5052094;28;20021;-79
2023/03/21 07:54:51;;;;;;;23.10;16.70;;;359.20;2329.60;;;;;;5046408;28;20032;-79
2023/03/21 07:57:16;;;;;;;25.77;15.50;;;359.30;2329.60;;;;;;5040743;28;20029;-82
2023/03/21 07:59:42;;;;;;;22.55;15.55;;;384.00;2329.60;;;;;;5041524;28;20064;-80
2023/03/21 08:02:15;;;;;;;24.92;18.17;;;384.00;2329.60;;;;;;5028173;28;20021;-80
2023/03/21 08:04:42;;;;;;;25.13;16.70;;;359.30;2329.60;;;;;;5055180;28;20060;-78
2023/03/21 08:07:07;;;;;;;28.02;17.02;;;384.00;2329.60;;;;;;5050589;28;20021;-78
2023/03/21 08:09:33;;;;;;;23.65;17.48;;;384.00;2329.60;;;;;;5054300;28;20025;-77
2023/03/21 08:11:59;;;;;;;29.52;18.92;;;384.10;2329.60;;;;;;5051920;28;20018;-75
2023/03/21 08:14:25;;;;;;;25.83;16.20;;;384.30;2329.60;;;;;;5055973;28;20029;-75
2023/03/21 08:16:50;;;;;;;23.77;17.52;;;384.50;2329.60;;;;;;5055639;28;20047;-75
2023/03/21 08:19:19;;;;;;;26.67;16.33;;;384.60;2329.60;;;;;;5074343;28;20036;-76
2023/03/21 08:21:45;;;;;;;26.15;16.92;;;384.70;2329.60;;;;;;5074038;28;20095;-76
2023/03/21 08:24:11;;;;;;;24.10;16.13;;;384.90;2329.60;;;;;;5074916;28;20024;-74
2023/03/21 08:26:37;;;;;;;24.80;16.75;;;409.60;2355.20;;;;;;5075945;28;20021;-79
2023/03/21 08:29:03;;;;;;;19.10;15.13;;;409.70;2355.20;;;;;;5052255;28;20473;-80
2023/03/21 08:31:28;;;;;;;24.90;15.55;;;409.80;2355.20;;;;;;5058664;28;20519;-82
2023/03/21 08:33:54;;;;;;;21.40;15.93;;;409.90;2355.20;;;;;;5056185;28;20039;-82
2023/03/21 08:36:22;;;;;;;25.60;15.45;;;409.90;2355.20;;;;;;5055663;28;20534;-82
2023/03/21 08:38:47;;;;;;;20.48;15.93;;;410.00;2355.20;;;;;;5046014;28;20041;-83
2023/03/21 08:41:16;;;;;;;23.83;15.93;;;410.20;2355.20;;;;;;5051946;28;20536;-82
2023/03/21 08:43:41;;;;;;;25.67;15.85;;;410.20;2355.20;;;;;;5054943;28;20024;-82
2023/03/21 08:46:07;;;;;;;22.70;15.27;;;410.20;2355.20;;;;;;5056221;28;20021;-83
2023/03/21 08:48:33;;;;;;;23.73;15.15;;;410.30;2355.20;;;;;;5053394;28;20541;-83
2023/03/21 08:51:01;;;;;;;21.92;15.38;;;410.40;2355.20;;;;;;5074404;28;20066;-83
2023/03/21 08:53:28;;;;;;;24.65;15.90;;;410.50;2355.20;;;;;;5049539;28;20070;-82
2023/03/21 08:55:53;;;;;;;21.67;15.93;;;435.20;2355.20;;;;;;5057501;28;20024;-79
2023/03/21 08:58:19;;;;;;;25.38;16.67;;;435.20;2355.20;;;;;;5043958;28;20394;-81
2023/03/21 09:00:45;;;;;;;23.95;15.68;;;435.30;2355.20;;;;;;5054013;28;20028;-76
2023/03/21 09:03:11;;;;;;;22.02;16.35;;;435.40;2355.20;;;;;;5075470;28;20063;-80
2023/03/21 09:05:36;;;;;;;19.85;14.20;;;435.50;2355.20;;;;;;5057355;28;20115;-80
2023/03/21 09:08:04;;;;;;;23.05;15.25;;;435.50;2355.20;;;;;;5056086;28;20032;-80
2023/03/21 09:10:30;;;;;;;22.67;15.50;;;435.70;2355.20;;;;;;5055536;28;20052;-80
2023/03/21 09:12:56;;;;;;;21.58;13.82;;;435.90;2355.20;;;;;;5050383;28;20124;-81
2023/03/21 09:15:24;;;;;;;22.33;14.45;;;436.10;2329.60;;;;;;5057521;28;20108;-80
2023/03/21 09:17:51;;;;;;;20.73;13.77;;;460.90;2355.20;;;;;;5047371;28;20048;-80
2023/03/21 09:20:19;;;;;;;19.98;13.77;;;461.10;2124.80;;;;;;5057282;28;20150;-80
2023/03/21 09:22:51;;;;;;;16.83;12.02;;;461.10;2201.60;;;;;;5057141;28;20032;-80
2023/03/21 09:25:18;;;;;;;19.35;13.80;;;461.20;2099.20;;;;;;5050586;28;20100;-80
2023/03/21 09:27:47;;;;;;;20.33;13.85;;;461.20;2150.40;;;;;;5071481;28;20040;-80
2023/03/21 09:30:16;;;;;;;18.48;13.18;;;461.10;2227.20;;;;;;5055715;28;20119;-80
2023/03/21 09:32:46;;;;;;;19.42;13.63;;;461.00;2201.60;;;;;;5057181;28;20028;-81
2023/03/21 09:35:12;;;;;;;18.80;13.63;;;460.90;2227.20;;;;;;5054065;28;20027;-80
2023/03/21 09:37:41;;;;;;;22.85;14.63;;;460.80;2329.60;;;;;;5050392;28;20032;-80
2023/03/21 09:40:18;;;;;;;21.05;13.88;;;460.80;2329.60;;;;;;5051742;28;20432;-80
2023/03/21 09:43:16;;;;;;;21.88;13.75;;;436.10;2252.80;;;;;;5042345;28;20043;-80
2023/03/21 09:46:07;;;;;;;25.88;14.88;;;436.10;2304.00;;;;;;4996908;28;20068;-81
2023/03/21 09:48:35;;;;;;;21.15;14.35;;;436.10;2355.20;;;;;;5000001;28;20021;-82
2023/03/21 09:51:03;;;;;;;22.45;14.60;;;460.80;2380.80;;;;;;4996533;28;20543;-79
2023/03/21 09:53:37;;;;;;;21.85;14.70;;;460.90;2380.80;;;;;;4992371;28;20033;-87
2023/03/21 09:56:05;;;;;;;22.60;14.35;;;460.90;2380.80;;;;;;4994545;28;20136;-81
2023/03/21 09:58:51;;;;;;;24.38;14.57;;;461.20;2227.20;;;;;;5013651;28;20539;-83
2023/03/21 10:01:33;;;;;;;18.92;14.57;;;461.40;2176.00;;;;;;5005596;28;20037;-86
2023/03/21 10:04:05;;;;;;;20.30;14.93;;;486.40;2176.00;;;;;;4998548;28;20041;-84
2023/03/21 10:06:34;;;;;;;18.73;13.30;;;486.70;2124.80;;;;;;5009620;28;20018;-86
2023/03/21 10:09:08;;;;;;;20.98;14.02;;;487.00;1996.80;;;;;;4996561;28;20193;-85
2023/03/21 10:12:08;;;;;;;17.65;12.45;;;487.10;1945.60;;;;;;4996098;28;20026;-86
2023/03/21 10:14:39;;;;;;;18.42;12.98;;;487.10;1945.60;;;;;;5011654;28;20061;-85
2023/03/21 10:17:32;;;;;;;17.95;12.52;;;487.00;1920.00;;;;;;4997584;28;20081;-90
2023/03/21 10:20:21;;;;;;;22.00;14.43;;;487.00;1843.20;;;;;;4996268;28;20061;-89
2023/03/21 10:22:49;;;;;;;19.65;14.02;;;487.30;1920.00;;;;;;5027333;28;20039;-90
2023/03/21 10:25:20;;;;;;;22.08;14.48;;;487.30;1843.20;;;;;;5056801;28;20021;-88
2023/03/21 10:27:50;;;;;;;20.60;14.18;;;487.30;1920.00;;;;;;5050091;28;20106;-88
2023/03/21 10:30:59;;;;;;;19.95;14.02;;;512.00;1843.20;;;;;;5056593;28;20021;-81
2023/03/21 10:33:41;;;;;;;18.63;11.80;;;512.50;1792.00;;;;;;4957516;28;20058;-84
2023/03/21 10:36:10;;;;;;;16.92;11.98;;;512.90;1689.60;;;;;;4973506;28;20105;-83
2023/03/21 10:38:40;;;;;;;21.85;12.85;;;537.70;1638.40;;;;;;4973692;28;20045;-84
2023/03/21 10:41:05;;;;;;;18.88;12.77;;;537.90;1689.60;;;;;;4962985;28;20026;-84
2023/03/21 10:43:36;;;;;;;17.88;13.15;;;538.40;1638.40;;;;;;4956790;28;20035;-85
2023/03/21 10:46:26;;;;;;;18.23;11.57;;;538.50;1612.80;;;;;;4956988;28;20030;-81
2023/03/21 10:48:53;;;;;;;15.88;11.75;;;538.10;1612.80;;;;;;4966102;28;20031;-84
2023/03/21 10:51:29;;;;;;;15.63;11.75;;;537.80;1638.40;;;;;;4956946;28;20114;-87
2023/03/21 10:53:58;;;;;;;15.38;11.60;;;538.00;1587.20;;;;;;4956925;28;20532;-86
2023/03/21 10:56:35;;;;;;;16.48;10.98;;;538.00;1587.20;;;;;;4960666;28;20031;-78
2023/03/21 10:59:02;;;;;;;17.17;12.73;;;538.30;1536.00;;;;;;4967853;28;20532;-78
2023/03/21 11:01:38;;;;;;;15.18;11.13;;;538.30;1561.60;;;;;;4956960;28;20029;-78
2023/03/21 11:04:21;;;;;;;14.73;11.43;;;538.50;1536.00;;;;;;4955909;28;20370;-79
2023/03/21 11:06:53;;;;;;;14.60;11.52;;;563.40;1561.60;;;;;;4956398;28;20034;-79
2023/03/21 11:09:23;;;;;;;14.95;10.38;;;563.60;1536.00;;;;;;4979094;28;20054;-83
2023/03/21 11:11:51;;;;;;;16.98;11.52;;;563.80;1536.00;;;;;;5073152;28;20058;-83
2023/03/21 11:14:46;;;;;;;13.57;8.90;;;564.00;1484.80;;;;;;5055497;28;20037;-87
2023/03/21 11:17:27;;;;;;;9.75;7.10;;;564.10;1433.60;;;;;;5053301;28;20040;-83
2023/03/21 11:20:08;;;;;;;10.48;7.60;;;589.00;1356.80;;;;;;5069339;28;20033;-84
2023/03/21 11:22:42;;;;;;;9.73;6.72;;;589.10;1331.20;;;;;;5049874;28;20116;-81
2023/03/21 11:25:22;;;;;;;9.60;6.97;;;589.10;1331.20;;;;;;5049207;28;20102;-81
2023/03/21 11:27:49;;;;;;;11.25;7.20;;;;;;;;;;5052352;28;20029;-80
2023/03/21 11:30:26;;;;;;;13.73;8.23;;;589.50;1305.60;;;;;;5070074;28;20024;-82
2023/03/21 11:32:57;;;;;;;10.18;7.35;;;589.30;1331.20;;;;;;5063385;28;20506;-79
2023/03/21 11:35:36;;;;;;;11.18;6.68;;;589.50;1331.20;;;;;;5055784;28;20028;-84
2023/03/21 11:38:02;;;;;;;8.40;6.35;;;589.70;1280.00;;;;;;5058050;28;20036;-81
2023/03/21 11:40:35;;;;;;;8.90;6.68;;;589.70;1280.00;;;;;;5053808;28;20020;-81
2023/03/21 11:43:17;;;;;;;7.47;5.90;;;589.70;1305.60;;;;;;5046958;28;20047;-82
2023/03/21 11:45:59;;;;;;;10.73;6.55;;;614.40;1280.00;;;;;;5047385;28;20063;-83
2023/03/21 11:48:25;;;;;;;7.35;5.38;;;589.70;1280.00;;;;;;5074326;28;20488;-81
2023/03/21 11:51:01;;;;;;;8.68;6.05;;;614.40;1254.40;;;;;;5077280;28;20031;-82
2023/03/21 11:53:43;;;;;;;7.15;5.22;;;614.70;1254.40;;;;;;5076968;28;20033;-83
2023/03/21 11:56:15;;;;;;;7.15;5.05;;;614.80;1228.80;;;;;;5074503;28;20072;-84
2023/03/21 11:59:05;;;;;;;7.05;5.25;;;614.50;1228.80;;;;;;5075564;28;20029;-83
2023/03/21 12:01:57;;;;;;;8.50;5.60;;;589.70;1254.40;;;;;;5073842;28;20039;-82
2023/03/21 12:04:41;;;;;;;10.68;5.70;;;614.50;1228.80;;;;;;5058620;28;20425;-83
2023/03/21 12:07:43;;;;;;;8.23;4.70;;;614.80;1254.40;;;;;;5056318;28;20059;-83
2023/03/21 12:10:27;;;;;;;9.35;5.80;;;614.80;1254.40;;;;;;5052372;28;20070;-83
2023/03/21 12:13:17;;;;;;;11.30;6.15;;;614.90;1203.20;;;;;;5075931;28;20024;-83
2023/03/21 12:16:03;;;;;;;8.32;6.00;;;;;;;;;;5058563;28;20230;-82